MIA weather

Public forecast

Using degrees Fahrenheit for public forecast. Weather courtesy of forecast.io.

Current aviation weather report (METAR) for Miami International Airport

Retrieved 2020/08/15 01:53 UTC (1 hour ago):

KMIA 150153Z 12007KT 10SM FEW030 FEW250 29/24 A3000 RMK AO2 SLP159 T02890239

Aviation forecast (TAF) for Miami International Airport

Retrieved 2020-08-15 00:45 UTC (2 hours ago):

TAF KMIA 142342Z 1500/1606 10010KT P6SM FEW030 SCT250 FM150200 VRB03KT P6SM SKC FM151400 14010KT P6SM SCT035 FM160200 VRB03KT P6SM SCT035